| time (UTC) | temp F | wind direction | speed MPH | gust MPH | rain 1hr in | rain 24hr in | rain mn in | humidity % | barometer mb |
| 20260903121545 | 66 | 235 | 1.0 | 6.0 | 0.02 | 0.16 | 0.16 | 96 | 1014.5 |
| 20260903121025 | 66 | 104 | 2.0 | 6.0 | 0.03 | 0.16 | 0.16 | 96 | 1014.6 |
| 20260903120524 | 66 | 178 | 2.0 | 5.0 | 0.03 | 0.16 | 0.16 | 96 | 1014.7 |
| 20260903120045 | 66 | 0 | 1.0 | 6.0 | 0.02 | 0.15 | 0.15 | 96 | 1014.9 |
| 20260903115526 | 66 | 0 | 1.0 | 6.0 | 0.02 | 0.15 | 0.15 | 96 | 1015.1 |
| 20260903115024 | 66 | 123 | 1.0 | 5.0 | 0.03 | 0.15 | 0.15 | 96 | 1014.9 |
| 20260903114541 | 66 | 150 | 1.0 | 6.0 | 0.03 | 0.15 | 0.15 | 96 | 1014.9 |
| 20260903114020 | 65 | 61 | 2.0 | 6.0 | 0.03 | 0.15 | 0.15 | 96 | 1014.9 |
| 20260903113518 | 65 | 241 | 2.0 | 6.0 | 0.03 | 0.15 | 0.15 | 96 | 1014.8 |
| 20260903113040 | 65 | 215 | 1.0 | 6.0 | 0.02 | 0.14 | 0.14 | 96 | 1014.8 |
| 20260903112524 | 65 | 193 | 2.0 | 5.0 | 0.02 | 0.14 | 0.14 | 96 | 1014.8 |
| 20260903112024 | 65 | 170 | 1.0 | 6.0 | 0.02 | 0.14 | 0.14 | 96 | 1014.8 |
| 20260903111544 | 65 | 104 | 2.0 | 6.0 | 0.02 | 0.14 | 0.14 | 96 | 1014.9 |
| 20260903111024 | 65 | 122 | 0.0 | 3.0 | 0.02 | 0.13 | 0.13 | 96 | 1014.9 |
| 20260903110519 | 65 | 141 | 1.0 | 7.0 | 0.02 | 0.13 | 0.13 | 96 | 1015.0 |
| 20260903110045 | 65 | 208 | 1.0 | 7.0 | 0.02 | 0.13 | 0.13 | 96 | 1014.9 |
| 20260903105523 | 65 | 147 | 2.0 | 6.0 | 0.03 | 0.13 | 0.13 | 96 | 1014.9 |
| 20260903105024 | 65 | 139 | 1.0 | 5.0 | 0.02 | 0.12 | 0.12 | 96 | 1014.9 |
| 20260903104542 | 65 | 136 | 2.0 | 5.0 | 0.04 | 0.12 | 0.12 | 96 | 1014.8 |
| 20260903104027 | 64 | 149 | 1.0 | 5.0 | 0.07 | 0.12 | 0.12 | 96 | 1014.7 |
| 20260903103523 | 64 | 133 | 1.0 | 6.0 | 0.08 | 0.12 | 0.12 | 96 | 1014.8 |
| 20260903103042 | 64 | 113 | 2.0 | 6.0 | 0.08 | 0.12 | 0.12 | 95 | 1014.7 |
| 20260903102521 | 64 | 150 | 1.0 | 5.0 | 0.08 | 0.12 | 0.12 | 95 | 1014.7 |
| 20260903102026 | 64 | 111 | 2.0 | 5.0 | 0.08 | 0.12 | 0.12 | 95 | 1014.6 |
| 20260903101551 | 63 | 122 | 2.0 | 4.0 | 0.07 | 0.11 | 0.11 | 95 | 1014.6 |
| 20260903101024 | 63 | 122 | 1.0 | 4.0 | 0.07 | 0.11 | 0.11 | 95 | 1014.6 |
| 20260903100524 | 63 | 113 | 0.0 | 4.0 | 0.08 | 0.11 | 0.11 | 95 | 1014.6 |
| 20260903100104 | 63 | 141 | 1.0 | 5.0 | 0.08 | 0.11 | 0.11 | 95 | 1014.9 |
| 20260903095523 | 63 | 87 | 2.0 | 5.0 | 0.07 | 0.10 | 0.10 | 94 | 1014.8 |
| 20260903095018 | 63 | 105 | 1.0 | 5.0 | 0.07 | 0.10 | 0.10 | 94 | 1014.7 |
| 20260903094553 | 64 | 148 | 3.0 | 5.0 | 0.04 | 0.07 | 0.07 | 93 | 1014.9 |
| 20260903094022 | 64 | 119 | 0.0 | 1.0 | 0.02 | 0.04 | 0.04 | 96 | 1015.1 |
| 20260903093523 | 64 | 0 | 0.0 | 1.0 | 0.02 | 0.04 | 0.04 | 94 | 1015.2 |
| 20260903093041 | 64 | 0 | 0.0 | 3.0 | 0.04 | 0.04 | 0.04 | 95 | 1015.2 |
| 20260903092527 | 63 | 116 | 0.0 | 3.0 | 0.04 | 0.04 | 0.04 | 94 | 1015.0 |
| 20260903092025 | 63 | 0 | 0.0 | 4.0 | 0.04 | 0.04 | 0.04 | 94 | 1015.0 |
| 20260903091545 | 62 | 124 | 1.0 | 4.0 | 0.04 | 0.04 | 0.04 | 93 | 1015.0 |
| 20260903091028 | 62 | 98 | 1.0 | 2.0 | 0.04 | 0.04 | 0.04 | 93 | 1014.9 |
| 20260903090523 | 62 | 126 | 0.0 | 3.0 | 0.03 | 0.03 | 0.03 | 93 | 1015.2 |
| 20260903090056 | 63 | 0 | 0.0 | 3.0 | 0.03 | 0.03 | 0.03 | 92 | 1015.2 |
| 20260903085523 | 63 | 148 | 1.0 | 3.0 | 0.03 | 0.03 | 0.03 | 92 | 1015.1 |
| 20260903085020 | 63 | 0 | 0.0 | 0.0 | 0.03 | 0.03 | 0.03 | 92 | 1015.4 |
| 20260903084542 | 63 | 0 | 0.0 | 1.0 | 0.03 | 0.03 | 0.03 | 91 | 1015.6 |
| 20260903084025 | 63 | 0 | 0.0 | 2.0 | 0.02 | 0.02 | 0.02 | 91 | 1015.7 |
| 20260903083524 | 63 | 0 | 0.0 | 2.0 | 0.01 | 0.01 | 0.01 | 91 | 1015.8 |
| 20260903083058 | 63 | 107 | 0.0 | 2.0 | 0.00 | 0.00 | 0.00 | 90 | 1015.8 |
| 20260903082526 | 63 | 105 | 1.0 | 4.0 | 0.00 | 0.00 | 0.00 | 90 | 1015.7 |
| 20260903082024 | 63 | 127 | 1.0 | 4.0 | 0.00 | 0.00 | 0.00 | 90 | 1015.9 |
| 20260903081545 | 63 | 105 | 1.0 | 4.0 | 0.00 | 0.00 | 0.00 | 90 | 1015.8 |
| 20260903081027 | 63 | 130 | 1.0 | 4.0 | 0.00 | 0.00 | 0.00 | 89 | 1015.9 |
| 20260903080524 | 63 | 0 | 1.0 | 4.0 | 0.00 | 0.00 | 0.00 | 89 | 1016.0 |
| 20260903080045 | 63 | 119 | 2.0 | 3.0 | 0.00 | 0.00 | 0.00 | 89 | 1015.9 |
| 20260903075523 | 63 | 117 | 0.0 | 3.0 | 0.00 | 0.00 | 0.00 | 89 | 1016.1 |
| 20260903075018 | 63 | 104 | 1.0 | 3.0 | 0.00 | 0.00 | 0.00 | 89 | 1016.1 |
| 20260903074543 | 63 | 0 | 0.0 | 3.0 | 0.00 | 0.00 | 0.00 | 89 | 1016.2 |
| 20260903074021 | 63 | 172 | 1.0 | 3.0 | 0.00 | 0.00 | 0.00 | 88 | 1016.4 |
| 20260903073524 | 63 | 121 | 1.0 | 4.0 | 0.00 | 0.00 | 0.00 | 88 | 1016.3 |
| 20260903073101 | 63 | 115 | 1.0 | 4.0 | 0.00 | 0.00 | 0.00 | 88 | 1016.4 |
| 20260903072524 | 62 | 122 | 1.0 | 4.0 | 0.00 | 0.00 | 0.00 | 88 | 1016.5 |
| 20260903072028 | 62 | 120 | 2.0 | 4.0 | 0.00 | 0.00 | 0.00 | 88 | 1016.6 |
| 20260903071559 | 62 | 125 | 1.0 | 4.0 | 0.00 | 0.00 | 0.00 | 88 | 1016.7 |
| 20260903071019 | 62 | 129 | 2.0 | 4.0 | 0.00 | 0.00 | 0.00 | 88 | 1016.8 |
| 20260903070519 | 62 | 118 | 1.0 | 2.0 | 0.00 | 0.00 | 0.00 | 88 | 1016.9 |
| 20260903070047 | 62 | 124 | 0.0 | 2.0 | 0.00 | 0.00 | 0.00 | 88 | 1017.0 |
| 20260903065525 | 62 | 119 | 1.0 | 2.0 | 0.00 | 0.00 | 0.00 | 88 | 1017.1 |
| 20260903065023 | 62 | 0 | 0.0 | 2.0 | 0.00 | 0.00 | 0.00 | 88 | 1017.1 |
| 20260903064546 | 62 | 0 | 0.0 | 2.0 | 0.00 | 0.00 | 0.00 | 88 | 1017.1 |
| 20260903064024 | 62 | 0 | 0.0 | 2.0 | 0.00 | 0.00 | 0.00 | 88 | 1017.1 |
| 20260903063524 | 62 | 122 | 0.0 | 1.0 | 0.00 | 0.00 | 0.00 | 88 | 1017.3 |
| 20260903063048 | 62 | 0 | 0.0 | 1.0 | 0.00 | 0.00 | 0.00 | 89 | 1017.3 |
| 20260903062526 | 62 | 0 | 0.0 | 1.0 | 0.00 | 0.00 | 0.00 | 89 | 1017.4 |
| 20260903062023 | 62 | 0 | 0.0 | 1.0 | 0.00 | 0.00 | 0.00 | 89 | 1017.6 |
| 20260903061543 | 62 | 0 | 0.0 | 0.0 | 0.00 | 0.00 | 0.00 | 89 | 1017.8 |
| 20260903061019 | 62 | 0 | 0.0 | 0.0 | 0.00 | 0.00 | 0.00 | 89 | 1017.8 |
| 20260903060523 | 62 | 0 | 0.0 | 0.0 | 0.00 | 0.00 | 0.00 | 89 | 1017.9 |
| 20260903060112 | 62 | 0 | 0.0 | 0.0 | 0.00 | 0.00 | 0.00 | 88 | 1018.0 |
| 20260903055528 | 62 | 0 | 0.0 | 1.0 | 0.00 | 0.00 | 0.00 | 88 | 1018.2 |
| 20260903055024 | 62 | 0 | 0.0 | 1.0 | 0.00 | 0.00 | 0.00 | 89 | 1018.3 |
| 20260903054544 | 62 | 0 | 0.0 | 2.0 | 0.00 | 0.00 | 0.00 | 89 | 1018.3 |
| 20260903054025 | 62 | 0 | 0.0 | 2.0 | 0.00 | 0.00 | 0.00 | 89 | 1018.4 |
| 20260903053524 | 62 | 94 | 0.0 | 2.0 | 0.00 | 0.00 | 0.00 | 89 | 1018.3 |
| 20260903053041 | 62 | 93 | 0.0 | 2.0 | 0.00 | 0.00 | 0.00 | 89 | 1018.3 |
| 20260903052522 | 62 | 0 | 0.0 | 2.0 | 0.00 | 0.00 | 0.00 | 90 | 1018.4 |
| 20260903052025 | 62 | 0 | 0.0 | 2.0 | 0.00 | 0.00 | 0.00 | 90 | 1018.3 |
| 20260903051542 | 62 | 105 | 1.0 | 2.0 | 0.00 | 0.00 | 0.00 | 90 | 1018.5 |
| 20260903051023 | 62 | 110 | 0.0 | 2.0 | 0.00 | 0.00 | 0.00 | 90 | 1018.8 |
| 20260903050524 | 62 | 0 | 0.0 | 0.0 | 0.00 | 0.00 | 0.00 | 91 | 1019.0 |
| 20260903050046 | 62 | 0 | 0.0 | 0.0 | 0.00 | 0.00 | 0.00 | 91 | 1018.9 |
| 20260903045524 | 62 | 0 | 0.0 | 0.0 | 0.00 | 0.00 | 0.00 | 91 | 1019.0 |
| 20260903045023 | 62 | 0 | 0.0 | 0.0 | 0.00 | 0.00 | 0.00 | 91 | 1018.9 |
| 20260903044542 | 62 | 0 | 0.0 | 0.0 | 0.00 | 0.00 | 0.00 | 91 | 1018.9 |
| 20260903044021 | 61 | 0 | 0.0 | 0.0 | 0.00 | 0.00 | 0.00 | 91 | 1018.9 |
| 20260903043520 | 61 | 0 | 0.0 | 0.0 | 0.00 | 0.00 | 0.00 | 91 | 1018.7 |
| 20260903043041 | 61 | 0 | 0.0 | 0.0 | 0.00 | 0.00 | 0.00 | 91 | 1018.7 |
| 20260903042520 | 61 | 0 | 0.0 | 0.0 | 0.00 | 0.00 | 0.00 | 91 | 1018.8 |
| 20260903042025 | 61 | 0 | 0.0 | 0.0 | 0.00 | 0.00 | 0.00 | 91 | 1018.7 |
| 20260903041545 | 61 | 0 | 0.0 | 1.0 | 0.00 | 0.00 | 0.00 | 91 | 1018.6 |
| 20260903041023 | 61 | 0 | 0.0 | 1.0 | 0.00 | 0.00 | 0.00 | 91 | 1018.4 |
| 20260903040524 | 61 | 120 | 0.0 | 1.0 | 0.00 | 0.00 | 0.00 | 91 | 1018.6 |
| 20260903040058 | 61 | 0 | 0.0 | 1.0 | 0.00 | 0.00 | 0.00 | 92 | 1018.7 |
| 20260903035519 | 61 | 0 | 0.0 | 0.0 | 0.00 | 0.00 | 0.00 | 92 | 1018.8 |
| 20260903035023 | 61 | 0 | 0.0 | 0.0 | 0.00 | 0.00 | 0.00 | 92 | 1018.8 |
| 20260903034548 | 61 | 0 | 0.0 | 0.0 | 0.00 | 0.00 | 0.00 | 92 | 1018.9 |
| 20260903034026 | 61 | 0 | 0.0 | 0.0 | 0.00 | 0.00 | 0.00 | 92 | 1018.9 |
| 20260903033524 | 60 | 0 | 0.0 | 0.0 | 0.00 | 0.00 | 0.00 | 92 | 1019.1 |
| 20260903033046 | 60 | 0 | 0.0 | 0.0 | 0.00 | 0.00 | 0.00 | 91 | 1019.3 |
| 20260903032525 | 60 | 0 | 0.0 | 0.0 | 0.00 | 0.00 | 0.00 | 91 | 1019.3 |
| 20260903032025 | 60 | 0 | 0.0 | 1.0 | 0.00 | 0.00 | 0.00 | 91 | 1019.2 |
| 20260903031544 | 60 | 0 | 0.0 | 1.0 | 0.00 | 0.00 | 0.00 | 91 | 1019.2 |
| 20260903031025 | 60 | 0 | 0.0 | 1.0 | 0.00 | 0.00 | 0.00 | 91 | 1019.2 |
| 20260903030525 | 60 | 0 | 0.0 | 0.0 | 0.00 | 0.00 | 0.00 | 90 | 1019.5 |
| 20260903030042 | 60 | 0 | 0.0 | 0.0 | 0.00 | 0.00 | 0.00 | 90 | 1019.5 |
| 20260903025523 | 61 | 0 | 0.0 | 0.0 | 0.00 | 0.00 | 0.00 | 90 | 1019.6 |
| 20260903025023 | 61 | 0 | 0.0 | 0.0 | 0.00 | 0.00 | 0.00 | 90 | 1019.5 |
| 20260903024544 | 61 | 0 | 0.0 | 0.0 | 0.00 | 0.00 | 0.00 | 89 | 1019.5 |
| 20260903024024 | 61 | 0 | 0.0 | 0.0 | 0.00 | 0.00 | 0.00 | 89 | 1019.6 |
| 20260903023523 | 61 | 0 | 0.0 | 0.0 | 0.00 | 0.00 | 0.00 | 89 | 1019.7 |
| 20260903023053 | 62 | 0 | 0.0 | 0.0 | 0.00 | 0.00 | 0.00 | 88 | 1019.7 |
| 20260903022519 | 62 | 0 | 0.0 | 0.0 | 0.00 | 0.00 | 0.00 | 88 | 1019.7 |
| 20260903022019 | 62 | 0 | 0.0 | 0.0 | 0.00 | 0.00 | 0.00 | 88 | 1019.5 |
| 20260903021543 | 62 | 0 | 0.0 | 0.0 | 0.00 | 0.00 | 0.00 | 88 | 1019.5 |
| 20260903021024 | 63 | 0 | 0.0 | 1.0 | 0.00 | 0.00 | 0.00 | 88 | 1019.5 |
| 20260903020524 | 63 | 120 | 0.0 | 1.0 | 0.00 | 0.00 | 0.00 | 87 | 1019.4 |
| 20260903020043 | 63 | 0 | 0.0 | 0.0 | 0.00 | 0.00 | 0.00 | 88 | 1019.5 |
| 20260903015525 | 63 | 0 | 0.0 | 1.0 | 0.00 | 0.00 | 0.00 | 88 | 1019.5 |
| 20260903015019 | 63 | 0 | 0.0 | 1.0 | 0.00 | 0.00 | 0.00 | 87 | 1019.4 |
| 20260903014552 | 63 | 127 | 0.0 | 1.0 | 0.00 | 0.00 | 0.00 | 87 | 1019.4 |
| 20260903014018 | 63 | 0 | 0.0 | 1.0 | 0.00 | 0.00 | 0.00 | 87 | 1019.6 |
| 20260903013524 | 63 | 0 | 0.0 | 2.0 | 0.00 | 0.00 | 0.00 | 87 | 1019.6 |
| 20260903013048 | 63 | 117 | 0.0 | 2.0 | 0.00 | 0.00 | 0.00 | 87 | 1019.6 |
| 20260903012524 | 63 | 0 | 0.0 | 1.0 | 0.00 | 0.00 | 0.00 | 87 | 1019.6 |
| 20260903012024 | 63 | 113 | 0.0 | 1.0 | 0.00 | 0.00 | 0.00 | 87 | 1019.6 |
| 20260903011546 | 63 | 0 | 0.0 | 1.0 | 0.00 | 0.00 | 0.00 | 86 | 1019.7 |
| 20260903011024 | 63 | 0 | 0.0 | 1.0 | 0.00 | 0.00 | 0.00 | 86 | 1019.9 |
| 20260903010525 | 64 | 0 | 0.0 | 1.0 | 0.00 | 0.00 | 0.00 | 85 | 1019.8 |
| 20260903010048 | 64 | 0 | 0.0 | 1.0 | 0.00 | 0.00 | 0.00 | 85 | 1019.9 |
| 20260903005522 | 64 | 0 | 0.0 | 0.0 | 0.00 | 0.00 | 0.00 | 84 | 1020.0 |
| 20260903005023 | 65 | 0 | 0.0 | 0.0 | 0.00 | 0.00 | 0.00 | 84 | 1020.0 |
| 20260903004542 | 65 | 0 | 0.0 | 1.0 | 0.00 | 0.00 | 0.00 | 84 | 1020.0 |
| 20260903004025 | 65 | 0 | 0.0 | 1.0 | 0.00 | 0.00 | 0.00 | 84 | 1019.9 |
| 20260903003525 | 65 | 111 | 0.0 | 1.0 | 0.00 | 0.00 | 0.00 | 84 | 1019.9 |
| 20260903003046 | 65 | 0 | 0.0 | 1.0 | 0.00 | 0.00 | 0.00 | 84 | 1020.0 |
| 20260903002528 | 65 | 0 | 0.0 | 1.0 | 0.00 | 0.00 | 0.00 | 84 | 1019.8 |
| 20260903002024 | 65 | 0 | 0.0 | 1.0 | 0.00 | 0.00 | 0.00 | 84 | 1020.0 |
| 20260903001549 | 65 | 0 | 0.0 | 0.0 | 0.00 | 0.00 | 0.00 | 84 | 1020.2 |
| 20260903001021 | 65 | 0 | 0.0 | 0.0 | 0.00 | 0.00 | 0.00 | 83 | 1020.3 |
| 20260903000519 | 65 | 0 | 0.0 | 0.0 | 0.00 | 0.00 | 0.00 | 83 | 1020.4 |
| 20260903000046 | 65 | 0 | 0.0 | 0.0 | 0.00 | 0.00 | 0.00 | 82 | 1020.6 |
| 20260902235524 | 66 | 0 | 0.0 | 0.0 | 0.00 | 0.00 | 0.00 | 82 | 1020.6 |
| 20260902235023 | 66 | 0 | 0.0 | 0.0 | 0.00 | 0.00 | 0.00 | 81 | 1020.7 |
| 20260902234559 | 66 | 0 | 0.0 | 0.0 | 0.00 | 0.00 | 0.00 | 80 | 1020.6 |
| 20260902234027 | 67 | 0 | 0.0 | 0.0 | 0.00 | 0.00 | 0.00 | 80 | 1020.6 |
| 20260902233524 | 67 | 0 | 0.0 | 1.0 | 0.00 | 0.00 | 0.00 | 79 | 1020.4 |
| 20260902233044 | 67 | 0 | 0.0 | 1.0 | 0.00 | 0.00 | 0.00 | 79 | 1020.5 |
| 20260902232519 | 67 | 0 | 0.0 | 1.0 | 0.00 | 0.00 | 0.00 | 79 | 1020.4 |
| 20260902232023 | 67 | 0 | 0.0 | 1.0 | 0.00 | 0.00 | 0.00 | 78 | 1020.4 |
| 20260902231545 | 67 | 0 | 0.0 | 1.0 | 0.00 | 0.00 | 0.00 | 78 | 1020.4 |
| 20260902231024 | 68 | 0 | 0.0 | 1.0 | 0.00 | 0.00 | 0.00 | 78 | 1020.4 |
| 20260902230524 | 68 | 119 | 0.0 | 1.0 | 0.00 | 0.00 | 0.00 | 77 | 1020.4 |
| 20260902230046 | 68 | 0 | 0.0 | 2.0 | 0.00 | 0.00 | 0.00 | 77 | 1020.4 |
| 20260902225524 | 68 | 122 | 0.0 | 3.0 | 0.00 | 0.00 | 0.00 | 76 | 1020.4 |
| 20260902225025 | 68 | 131 | 0.0 | 3.0 | 0.00 | 0.00 | 0.00 | 75 | 1020.6 |
| 20260902224546 | 68 | 0 | 0.0 | 2.0 | 0.00 | 0.00 | 0.00 | 75 | 1020.6 |
| 20260902224024 | 69 | 93 | 0.0 | 2.0 | 0.00 | 0.00 | 0.00 | 75 | 1020.5 |
| 20260902223518 | 69 | 0 | 0.0 | 2.0 | 0.00 | 0.00 | 0.00 | 75 | 1020.5 |
| 20260902223046 | 69 | 0 | 0.0 | 1.0 | 0.00 | 0.00 | 0.00 | 74 | 1020.4 |
| 20260902222524 | 69 | 0 | 0.0 | 3.0 | 0.00 | 0.00 | 0.00 | 75 | 1020.6 |
| 20260902222024 | 69 | 64 | 0.0 | 8.0 | 0.00 | 0.00 | 0.00 | 74 | 1020.5 |
| 20260902221548 | 69 | 133 | 0.0 | 8.0 | 0.00 | 0.00 | 0.00 | 74 | 1020.6 |
| 20260902221025 | 69 | 0 | 1.0 | 6.0 | 0.00 | 0.00 | 0.00 | 73 | 1020.4 |
| 20260902220524 | 70 | 143 | 2.0 | 6.0 | 0.00 | 0.00 | 0.00 | 72 | 1020.4 |
| 20260902220044 | 70 | 89 | 2.0 | 9.0 | 0.00 | 0.00 | 0.00 | 71 | 1020.6 |
| 20260902215522 | 70 | 121 | 1.0 | 9.0 | 0.00 | 0.00 | 0.00 | 70 | 1020.4 |
| 20260902215019 | 70 | 69 | 2.0 | 8.0 | 0.00 | 0.00 | 0.00 | 70 | 1020.6 |
| 20260902214545 | 71 | 0 | 0.0 | 4.0 | 0.00 | 0.00 | 0.00 | 70 | 1020.5 |
| 20260902214020 | 71 | 158 | 1.0 | 5.0 | 0.00 | 0.00 | 0.00 | 69 | 1020.4 |
| 20260902213524 | 71 | 0 | 0.0 | 5.0 | 0.00 | 0.00 | 0.00 | 70 | 1020.2 |
| 20260902213044 | 71 | 159 | 1.0 | 6.0 | 0.00 | 0.00 | 0.00 | 70 | 1020.1 |
| 20260902212523 | 71 | 99 | 2.0 | 6.0 | 0.00 | 0.00 | 0.00 | 69 | 1020.0 |
| 20260902212026 | 72 | 131 | 0.0 | 4.0 | 0.00 | 0.00 | 0.00 | 68 | 1020.1 |
| 20260902211543 | 72 | 18 | 0.0 | 2.0 | 0.00 | 0.00 | 0.00 | 67 | 1020.3 |
| 20260902211026 | 72 | 86 | 0.0 | 4.0 | 0.00 | 0.00 | 0.00 | 67 | 1020.6 |
| 20260902210519 | 72 | 100 | 1.0 | 4.0 | 0.00 | 0.00 | 0.00 | 67 | 1020.5 |
| 20260902210042 | 72 | 0 | 0.0 | 7.0 | 0.00 | 0.00 | 0.00 | 66 | 1020.7 |
| 20260902205525 | 72 | 188 | 3.0 | 7.0 | 0.00 | 0.00 | 0.00 | 65 | 1020.6 |
| 20260902205024 | 72 | 86 | 1.0 | 3.0 | 0.00 | 0.00 | 0.00 | 68 | 1020.7 |
| 20260902204549 | 72 | 0 | 0.0 | 2.0 | 0.00 | 0.00 | 0.00 | 66 | 1020.7 |
| 20260902204024 | 73 | 101 | 0.0 | 2.0 | 0.00 | 0.00 | 0.00 | 66 | 1020.6 |
| 20260902203526 | 73 | 39 | 0.0 | 3.0 | 0.00 | 0.00 | 0.00 | 66 | 1020.5 |
| 20260902203045 | 73 | 30 | 1.0 | 3.0 | 0.00 | 0.00 | 0.00 | 67 | 1020.6 |
| 20260902202522 | 73 | 32 | 1.0 | 4.0 | 0.00 | 0.00 | 0.00 | 65 | 1020.6 |
| 20260902202024 | 74 | 24 | 0.0 | 6.0 | 0.00 | 0.00 | 0.00 | 65 | 1020.6 |
| 20260902201542 | 74 | 347 | 1.0 | 8.0 | 0.00 | 0.00 | 0.00 | 64 | 1020.4 |
| 20260902201024 | 74 | 132 | 4.0 | 8.0 | 0.00 | 0.00 | 0.00 | 64 | 1020.5 |
| 20260902200521 | 75 | 153 | 1.0 | 6.0 | 0.00 | 0.00 | 0.00 | 62 | 1020.3 |
| 20260902200045 | 75 | 57 | 3.0 | 6.0 | 0.00 | 0.00 | 0.00 | 62 | 1020.4 |
| 20260902195525 | 76 | 91 | 2.0 | 6.0 | 0.00 | 0.01 | 0.00 | 63 | 1020.5 |
| 20260902195025 | 76 | 307 | 1.0 | 6.0 | 0.00 | 0.01 | 0.00 | 62 | 1020.7 |
| 20260902194544 | 76 | 136 | 1.0 | 5.0 | 0.00 | 0.01 | 0.00 | 63 | 1020.8 |
| 20260902194025 | 75 | 349 | 1.0 | 5.0 | 0.00 | 0.01 | 0.00 | 62 | 1020.7 |
| 20260902193523 | 75 | 45 | 2.0 | 5.0 | 0.00 | 0.01 | 0.00 | 64 | 1020.9 |
| 20260902193042 | 75 | 6 | 1.0 | 4.0 | 0.00 | 0.01 | 0.00 | 63 | 1020.9 |
| 20260902192524 | 75 | 348 | 2.0 | 5.0 | 0.00 | 0.01 | 0.00 | 63 | 1021.0 |
| 20260902192024 | 74 | 89 | 1.0 | 5.0 | 0.00 | 0.01 | 0.00 | 66 | 1021.1 |
| 20260902191549 | 74 | 106 | 1.0 | 8.0 | 0.00 | 0.01 | 0.00 | 67 | 1021.1 |
| 20260902191026 | 74 | 79 | 3.0 | 8.0 | 0.00 | 0.01 | 0.00 | 65 | 1021.1 |
| 20260902190527 | 75 | 113 | 4.0 | 8.0 | 0.00 | 0.01 | 0.00 | 65 | 1021.0 |
| 20260902190046 | 75 | 119 | 1.0 | 8.0 | 0.00 | 0.01 | 0.00 | 66 | 1020.9 |
| 20260902185525 | 75 | 181 | 3.0 | 9.0 | 0.00 | 0.04 | 0.00 | 65 | 1020.8 |
| 20260902185025 | 75 | 60 | 5.0 | 9.0 | 0.00 | 0.04 | 0.00 | 66 | 1020.9 |
| 20260902184541 | 75 | 127 | 3.0 | 8.0 | 0.00 | 0.04 | 0.00 | 64 | 1021.0 |
| 20260902184024 | 75 | 172 | 4.0 | 8.0 | 0.00 | 0.04 | 0.00 | 63 | 1020.9 |
| 20260902183524 | 75 | 9 | 2.0 | 7.0 | 0.00 | 0.04 | 0.00 | 62 | 1020.8 |
| 20260902183045 | 75 | 234 | 2.0 | 7.0 | 0.00 | 0.04 | 0.00 | 64 | 1020.9 |
| 20260902182523 | 75 | 214 | 2.0 | 5.0 | 0.00 | 0.04 | 0.00 | 62 | 1020.9 |
| 20260902182029 | 75 | 304 | 2.0 | 7.0 | 0.00 | 0.04 | 0.00 | 63 | 1020.9 |
| 20260902181553 | 76 | 110 | 2.0 | 7.0 | 0.00 | 0.04 | 0.00 | 63 | 1020.8 |
| 20260902181023 | 75 | 77 | 2.0 | 7.0 | 0.00 | 0.04 | 0.00 | 63 | 1020.9 |
| 20260902180523 | 75 | 176 | 2.0 | 7.0 | 0.00 | 0.04 | 0.00 | 64 | 1020.9 |
| 20260902180054 | 74 | 341 | 1.0 | 7.0 | 0.00 | 0.04 | 0.00 | 66 | 1020.8 |
| 20260902175524 | 74 | 123 | 2.0 | 7.0 | 0.00 | 0.05 | 0.00 | 67 | 1020.9 |
| 20260902175025 | 74 | 155 | 3.0 | 7.0 | 0.00 | 0.05 | 0.00 | 68 | 1021.0 |
| 20260902174543 | 74 | 101 | 1.0 | 8.0 | 0.00 | 0.05 | 0.00 | 66 | 1021.1 |
| 20260902174024 | 74 | 98 | 4.0 | 8.0 | 0.00 | 0.05 | 0.00 | 66 | 1021.2 |
| 20260902173524 | 74 | 136 | 2.0 | 8.0 | 0.00 | 0.05 | 0.00 | 65 | 1021.0 |
| 20260902173046 | 75 | 86 | 2.0 | 5.0 | 0.00 | 0.05 | 0.00 | 62 | 1021.1 |
| 20260902172526 | 75 | 57 | 2.0 | 5.0 | 0.00 | 0.05 | 0.00 | 62 | 1021.4 |
| 20260902172024 | 75 | 53 | 1.0 | 6.0 | 0.00 | 0.05 | 0.00 | 63 | 1021.3 |
| 20260902171558 | 74 | 33 | 2.0 | 6.0 | 0.00 | 0.05 | 0.00 | 61 | 1021.4 |
| 20260902171024 | 75 | 347 | 2.0 | 6.0 | 0.00 | 0.05 | 0.00 | 59 | 1021.5 |
| 20260902170526 | 75 | 8 | 1.0 | 5.0 | 0.00 | 0.05 | 0.00 | 61 | 1021.5 |
| 20260902170047 | 75 | 41 | 2.0 | 5.0 | 0.00 | 0.05 | 0.00 | 61 | 1021.3 |
| 20260902165525 | 74 | 352 | 1.0 | 6.0 | 0.00 | 0.05 | 0.00 | 63 | 1021.3 |
| 20260902165030 | 74 | 110 | 2.0 | 9.0 | 0.00 | 0.05 | 0.00 | 63 | 1021.4 |
| 20260902164545 | 74 | 214 | 3.0 | 9.0 | 0.00 | 0.05 | 0.00 | 62 | 1021.6 |
| 20260902164024 | 75 | 111 | 2.0 | 7.0 | 0.00 | 0.05 | 0.00 | 63 | 1021.4 |
| 20260902163524 | 74 | 186 | 2.0 | 5.0 | 0.00 | 0.05 | 0.00 | 64 | 1021.4 |
| 20260902163042 | 74 | 30 | 2.0 | 5.0 | 0.00 | 0.05 | 0.00 | 64 | 1021.4 |
| 20260902162524 | 74 | 172 | 2.0 | 6.0 | 0.00 | 0.05 | 0.00 | 64 | 1021.4 |
| 20260902162024 | 74 | 123 | 1.0 | 6.0 | 0.00 | 0.05 | 0.00 | 66 | 1021.5 |
| 20260902161557 | 73 | 108 | 1.0 | 6.0 | 0.00 | 0.05 | 0.00 | 68 | 1021.5 |
| 20260902161025 | 73 | 140 | 1.0 | 7.0 | 0.00 | 0.05 | 0.00 | 67 | 1021.5 |
| 20260902160526 | 72 | 47 | 4.0 | 9.0 | 0.00 | 0.05 | 0.00 | 67 | 1021.6 |
| 20260902160049 | 72 | 60 | 4.0 | 9.0 | 0.00 | 0.05 | 0.00 | 65 | 1021.8 |
| 20260902155525 | 72 | 65 | 5.0 | 9.0 | 0.00 | 0.05 | 0.00 | 66 | 1021.9 |
| 20260902155027 | 72 | 118 | 3.0 | 10.0 | 0.00 | 0.05 | 0.00 | 66 | 1022.0 |
| 20260902154544 | 72 | 143 | 3.0 | 10.0 | 0.00 | 0.05 | 0.00 | 68 | 1022.0 |
| 20260902154024 | 73 | 93 | 4.0 | 8.0 | 0.00 | 0.05 | 0.00 | 66 | 1021.9 |
| 20260902153526 | 73 | 107 | 2.0 | 7.0 | 0.00 | 0.05 | 0.00 | 68 | 1022.0 |
| 20260902153044 | 72 | 107 | 2.0 | 9.0 | 0.00 | 0.05 | 0.00 | 71 | 1021.9 |
| 20260902152526 | 72 | 119 | 4.0 | 9.0 | 0.00 | 0.05 | 0.00 | 70 | 1021.9 |
| 20260902152024 | 72 | 71 | 4.0 | 11.0 | 0.00 | 0.05 | 0.00 | 68 | 1021.9 |
| 20260902151541 | 72 | 155 | 3.0 | 11.0 | 0.00 | 0.05 | 0.00 | 71 | 1021.9 |
| 20260902151023 | 71 | 137 | 4.0 | 8.0 | 0.00 | 0.05 | 0.00 | 74 | 1022.0 |
| 20260902150527 | 71 | 140 | 1.0 | 6.0 | 0.00 | 0.05 | 0.00 | 75 | 1021.9 |
| 20260902150045 | 71 | 127 | 2.0 | 7.0 | 0.00 | 0.05 | 0.00 | 76 | 1021.9 |
| 20260902145524 | 70 | 113 | 4.0 | 7.0 | 0.00 | 0.05 | 0.00 | 76 | 1021.9 |
| 20260902145025 | 70 | 51 | 2.0 | 5.0 | 0.00 | 0.05 | 0.00 | 76 | 1021.8 |
| 20260902144543 | 70 | 33 | 1.0 | 5.0 | 0.00 | 0.05 | 0.00 | 76 | 1021.9 |
| 20260902144023 | 70 | 136 | 1.0 | 6.0 | 0.00 | 0.05 | 0.00 | 77 | 1021.7 |
| 20260902143522 | 70 | 0 | 0.0 | 6.0 | 0.00 | 0.05 | 0.00 | 77 | 1021.7 |
| 20260902143044 | 70 | 344 | 1.0 | 7.0 | 0.00 | 0.05 | 0.00 | 77 | 1021.6 |
| 20260902142520 | 70 | 13 | 2.0 | 7.0 | 0.00 | 0.05 | 0.00 | 77 | 1021.6 |
| 20260902142024 | 70 | 84 | 2.0 | 7.0 | 0.00 | 0.05 | 0.00 | 79 | 1021.5 |
| 20260902141540 | 70 | 12 | 2.0 | 6.0 | 0.00 | 0.05 | 0.00 | 80 | 1021.3 |
| 20260902141025 | 69 | 43 | 1.0 | 6.0 | 0.00 | 0.05 | 0.00 | 79 | 1021.2 |
| 20260902140524 | 69 | 99 | 1.0 | 4.0 | 0.00 | 0.05 | 0.00 | 81 | 1021.1 |
| 20260902140045 | 69 | 6 | 0.0 | 2.0 | 0.00 | 0.05 | 0.00 | 81 | 1021.3 |
| 20260902135521 | 68 | 125 | 0.0 | 2.0 | 0.00 | 0.05 | 0.00 | 82 | 1021.1 |
| 20260902135018 | 68 | 0 | 0.0 | 3.0 | 0.00 | 0.05 | 0.00 | 82 | 1021.0 |
| 20260902134546 | 68 | 326 | 1.0 | 5.0 | 0.00 | 0.05 | 0.00 | 82 | 1020.8 |
| 20260902134022 | 68 | 38 | 2.0 | 5.0 | 0.00 | 0.05 | 0.00 | 81 | 1020.9 |
| 20260902133524 | 68 | 25 | 1.0 | 4.0 | 0.00 | 0.05 | 0.00 | 85 | 1020.9 |
| 20260902133045 | 67 | 156 | 0.0 | 2.0 | 0.00 | 0.05 | 0.00 | 86 | 1020.8 |
| 20260902132528 | 67 | 41 | 1.0 | 5.0 | 0.00 | 0.05 | 0.00 | 86 | 1021.0 |
| 20260902132023 | 67 | 121 | 1.0 | 5.0 | 0.00 | 0.05 | 0.00 | 86 | 1021.1 |
| 20260902131544 | 67 | 0 | 1.0 | 4.0 | 0.00 | 0.05 | 0.00 | 87 | 1021.2 |
| 20260902131021 | 66 | 356 | 0.0 | 3.0 | 0.00 | 0.05 | 0.00 | 88 | 1021.2 |
| 20260902130519 | 66 | 0 | 0.0 | 3.0 | 0.00 | 0.05 | 0.00 | 90 | 1021.2 |
| 20260902130044 | 66 | 0 | 0.0 | 4.0 | 0.00 | 0.05 | 0.00 | 90 | 1021.2 |
| 20260902125526 | 65 | 15 | 1.0 | 4.0 | 0.00 | 0.05 | 0.00 | 91 | 1021.3 |
| 20260902125025 | 65 | 0 | 1.0 | 3.0 | 0.00 | 0.05 | 0.00 | 92 | 1021.4 |
| 20260902124545 | 65 | 0 | 0.0 | 3.0 | 0.00 | 0.05 | 0.00 | 93 | 1021.5 |
| 20260902124023 | 65 | 0 | 1.0 | 3.0 | 0.00 | 0.05 | 0.00 | 94 | 1021.5 |
| 20260902123524 | 65 | 0 | 0.0 | 2.0 | 0.00 | 0.05 | 0.00 | 95 | 1021.6 |
| 20260902123045 | 65 | 0 | 0.0 | 2.0 | 0.00 | 0.05 | 0.00 | 96 | 1021.4 |
| 20260902122524 | 64 | 0 | 0.0 | 2.0 | 0.00 | 0.05 | 0.00 | 96 | 1021.4 |
| 20260902122018 | 64 | 25 | 0.0 | 1.0 | 0.00 | 0.05 | 0.00 | 97 | 1021.5 |